Time;durP1;ratioP1;P1;durP2;ratioP2;P2;SDS_P1;SDS_P2;PMS_P1;PMS_P2;Temp;Humidity;BMP_temperature;BMP_pressure;BME280_temperature;BME280_humidity;BME280_pressure;Samples;Min_cycle;Max_cycle;Signal;HPM_P1;HPM_P2
2023/07/09 00:02:28;;;;;;;11.88;7.65;;;;;;;24.36;68.30;101496.47;5326626;28;20106;-74
2023/07/09 00:04:59;;;;;;;12.35;7.30;;;;;;;24.21;68.90;101497.38;5326734;28;20045;-74
2023/07/09 00:07:32;;;;;;;11.90;7.53;;;;;;;24.03;69.35;101502.84;5327893;28;20023;-74
2023/07/09 00:10:17;;;;;;;8.77;7.85;;;;;;;23.85;69.94;101496.78;5327030;28;20110;-75
2023/07/09 00:12:48;;;;;;;10.20;7.78;;;;;;;23.74;69.35;101495.66;5327695;28;20023;-74
2023/07/09 00:15:21;;;;;;;11.25;7.22;;;;;;;23.81;69.89;101500.53;5328433;28;20088;-75
2023/07/09 00:17:52;;;;;;;11.90;7.75;;;;;;;23.76;70.74;101504.41;5327784;27;20031;-75
2023/07/09 00:20:23;;;;;;;9.67;7.27;;;;;;;23.76;70.84;101507.91;5326234;28;20092;-75
2023/07/09 00:22:55;;;;;;;13.00;7.50;;;;;;;23.63;70.55;101507.75;5327208;28;20413;-75
2023/07/09 00:25:26;;;;;;;11.67;8.57;;;;;;;23.65;71.17;101515.66;5327546;28;20031;-75
2023/07/09 00:27:58;;;;;;;10.80;8.10;;;;;;;23.59;71.26;101514.19;5327152;28;20023;-75
2023/07/09 00:30:30;;;;;;;12.97;8.10;;;;;;;23.72;71.16;101517.03;5327375;28;20088;-75
2023/07/09 00:33:01;;;;;;;12.32;7.18;;;;;;;23.58;71.96;101519.63;5326957;28;20089;-74
2023/07/09 00:35:33;;;;;;;11.10;7.43;;;;;;;23.64;72.06;101521.94;5327092;28;20431;-75
2023/07/09 00:38:04;;;;;;;9.77;7.95;;;;;;;23.61;72.36;101525.59;5325742;28;20048;-75
2023/07/09 00:40:36;;;;;;;10.57;8.13;;;;;;;23.46;72.51;101526.47;5326729;28;20052;-75
2023/07/09 00:43:15;;;;;;;11.63;8.50;;;;;;;23.26;72.95;101528.41;5326869;28;20090;-75
2023/07/09 00:46:35;;;;;;;9.15;7.38;;;;;;;23.46;72.53;101526.47;5326914;28;20076;-75
2023/07/09 00:49:10;;;;;;;13.30;8.60;;;;;;;23.33;73.71;101528.09;5326758;28;20027;-75
2023/07/09 00:51:45;;;;;;;12.25;8.20;;;;;;;23.26;74.20;101514.25;5326494;28;20363;-75
2023/07/09 00:54:32;;;;;;;11.40;8.45;;;;;;;23.23;73.84;101523.28;5326748;28;20472;-75
2023/07/09 00:57:12;;;;;;;11.63;8.20;;;;;;;23.04;74.77;101520.72;5328405;28;20034;-75
2023/07/09 00:59:48;;;;;;;12.82;8.23;;;;;;;23.15;75.14;101522.81;5326693;28;20027;-75
2023/07/09 01:02:23;;;;;;;11.10;7.95;;;;;;;23.18;75.15;101524.47;5326571;28;20031;-74
2023/07/09 01:05:00;;;;;;;10.98;8.10;;;;;;;23.25;75.66;101526.72;5326553;28;20028;-75
2023/07/09 01:07:32;;;;;;;10.52;8.75;;;;;;;23.26;75.29;101525.75;5326723;28;20344;-75
2023/07/09 01:10:10;;;;;;;12.15;8.55;;;;;;;23.12;75.19;101523.84;5326095;28;20470;-74
2023/07/09 01:12:43;;;;;;;14.15;8.07;;;;;;;23.11;75.73;101518.63;5326671;28;20077;-74
2023/07/09 01:15:15;;;;;;;13.57;8.77;;;;;;;22.93;76.10;101512.47;5326262;28;20019;-74
2023/07/09 01:17:47;;;;;;;13.57;9.05;;;;;;;22.85;76.12;101510.22;5325972;28;20050;-75
2023/07/09 01:20:20;;;;;;;13.43;8.95;;;;;;;22.89;76.97;101510.91;5324998;28;20028;-75
2023/07/09 01:22:56;;;;;;;11.95;8.82;;;;;;;22.89;77.34;101509.13;5326259;28;20131;-75
2023/07/09 01:25:28;;;;;;;15.38;8.82;;;;;;;22.91;76.67;101517.88;5325857;28;20084;-75
2023/07/09 01:28:00;;;;;;;11.37;8.77;;;;;;;22.95;77.14;101518.56;5325948;28;20429;-75
2023/07/09 01:30:37;;;;;;;13.32;8.55;;;;;;;22.89;77.77;101518.88;5326070;28;20031;-75
2023/07/09 01:33:09;;;;;;;13.60;9.18;;;;;;;22.70;77.93;101511.00;5325620;28;20073;-74
2023/07/09 01:35:41;;;;;;;12.63;9.05;;;;;;;22.83;78.29;101511.22;5326852;28;20478;-74
2023/07/09 01:38:13;;;;;;;11.77;8.50;;;;;;;22.76;78.73;101508.03;5325386;28;20073;-74
2023/07/09 01:40:46;;;;;;;12.90;8.63;;;;;;;22.66;78.59;101520.09;5325616;28;20023;-75
2023/07/09 01:43:18;;;;;;;19.02;10.45;;;;;;;22.65;79.29;101521.03;5325576;28;20359;-75
2023/07/09 01:45:50;;;;;;;10.13;8.52;;;;;;;22.66;78.98;101518.28;5326345;28;20088;-74
2023/07/09 01:48:24;;;;;;;11.40;9.60;;;;;;;22.67;78.80;101530.63;5325858;28;20036;-76
2023/07/09 01:50:55;;;;;;;11.70;8.98;;;;;;;22.54;79.82;101534.84;5325895;28;20438;-76
2023/07/09 01:53:30;;;;;;;13.50;9.65;;;;;;;22.53;79.41;101526.03;5324679;28;20123;-75
2023/07/09 01:56:03;;;;;;;12.75;8.75;;;;;;;22.51;80.11;101538.53;5325421;28;20024;-74
2023/07/09 01:58:34;;;;;;;10.18;8.50;;;;;;;22.52;80.20;101534.06;5326041;28;20042;-75
2023/07/09 02:01:06;;;;;;;11.27;8.30;;;;;;;22.49;79.66;101537.78;5325707;28;20036;-75
2023/07/09 02:03:37;;;;;;;11.03;8.63;;;;;;;22.57;80.30;101543.53;5326193;28;20489;-75
2023/07/09 02:06:10;;;;;;;16.17;9.03;;;;;;;22.39;79.95;101541.81;5325710;28;20031;-75
2023/07/09 02:08:42;;;;;;;13.38;8.82;;;;;;;22.35;81.33;101545.56;5325696;28;20322;-75
2023/07/09 02:11:13;;;;;;;11.57;9.87;;;;;;;22.32;80.64;101540.41;5325336;28;20019;-75
2023/07/09 02:13:45;;;;;;;11.30;9.10;;;;;;;22.18;81.54;101539.25;5325685;28;20042;-75
2023/07/09 02:16:16;;;;;;;15.20;9.37;;;;;;;22.06;81.70;101539.00;5326910;28;20058;-75
2023/07/09 02:18:47;;;;;;;12.67;9.13;;;;;;;22.12;82.19;101550.19;5325893;28;20352;-75
2023/07/09 02:21:19;;;;;;;12.07;9.30;;;;;;;22.02;81.87;101548.91;5325902;28;20119;-75
2023/07/09 02:23:50;;;;;;;14.70;9.37;;;;;;;22.04;82.58;101547.91;5325263;28;20052;-75
2023/07/09 02:26:21;;;;;;;14.43;10.57;;;;;;;22.02;82.59;101536.53;5325620;28;20382;-76
2023/07/09 02:28:53;;;;;;;13.23;8.87;;;;;;;22.06;83.15;101536.34;5325814;28;20111;-75
2023/07/09 02:31:24;;;;;;;12.27;8.83;;;;;;;21.78;82.63;101540.34;5324196;28;20023;-75
2023/07/09 02:33:56;;;;;;;13.53;10.23;;;;;;;21.67;83.34;101540.88;5325468;28;20043;-75
2023/07/09 02:36:28;;;;;;;11.23;8.63;;;;;;;21.78;83.97;101535.91;5325431;28;20063;-75
2023/07/09 02:38:59;;;;;;;11.00;8.67;;;;;;;21.76;83.57;101534.25;5325577;28;20059;-76
2023/07/09 02:41:30;;;;;;;10.23;9.07;;;;;;;21.70;83.86;101531.91;5324864;28;20043;-75
2023/07/09 02:44:03;;;;;;;12.90;9.13;;;;;;;21.71;84.02;101537.13;5325288;28;20270;-75
2023/07/09 02:46:34;;;;;;;;;;;;;;;22.05;80.74;101538.16;5326194;28;20020;-74
2023/07/09 02:49:08;;;;;;;12.70;9.67;;;;;;;21.74;83.77;101536.97;5324225;28;19918;-74
2023/07/09 02:51:39;;;;;;;10.65;9.63;;;;;;;21.71;84.38;101539.78;5329186;28;20076;-76
2023/07/09 02:54:10;;;;;;;12.97;9.93;;;;;;;21.53;84.33;101543.31;5329266;28;20059;-77
2023/07/09 02:56:42;;;;;;;16.50;9.80;;;;;;;21.58;85.16;101547.47;5332856;28;20334;-76
2023/07/09 02:59:13;;;;;;;16.33;9.57;;;;;;;21.49;85.72;101543.47;5329547;28;20035;-75
2023/07/09 03:01:45;;;;;;;10.70;9.20;;;;;;;21.47;85.72;101542.63;5322425;28;20131;-74
2023/07/09 03:04:16;;;;;;;12.60;9.17;;;;;;;21.43;85.95;101543.72;5317372;28;20032;-75
2023/07/09 03:06:47;;;;;;;14.27;9.97;;;;;;;21.24;86.28;101535.72;5317365;27;20354;-75
2023/07/09 03:09:20;;;;;;;12.57;10.17;;;;;;;21.36;86.67;101530.78;5316319;28;20039;-74
2023/07/09 03:11:51;;;;;;;;;;;;;;;21.68;82.87;101539.94;5325908;28;20039;-75
2023/07/09 03:14:23;;;;;;;14.27;10.93;;;;;;;21.35;85.93;101540.56;5328749;28;19912;-75
2023/07/09 03:16:55;;;;;;;11.88;10.32;;;;;;;21.34;86.75;101536.16;5328511;28;20020;-75
2023/07/09 03:19:27;;;;;;;14.63;10.60;;;;;;;21.29;87.09;101540.81;5328569;28;20028;-75
2023/07/09 03:21:58;;;;;;;12.07;9.33;;;;;;;21.20;87.31;101534.13;5328659;28;20035;-75
2023/07/09 03:24:30;;;;;;;15.50;10.27;;;;;;;21.26;87.49;101539.16;5328306;28;20102;-75
2023/07/09 03:27:01;;;;;;;10.07;8.90;;;;;;;21.26;87.68;101541.81;5328621;28;20416;-75
2023/07/09 03:29:33;;;;;;;11.87;9.47;;;;;;;21.29;88.11;101544.34;5327349;28;20023;-76
2023/07/09 03:32:05;;;;;;;11.02;9.88;;;;;;;21.20;87.96;101536.78;5328568;28;20108;-75
2023/07/09 03:34:36;;;;;;;12.98;11.27;;;;;;;21.19;88.73;101537.75;5328423;28;20386;-75
2023/07/09 03:37:07;;;;;;;14.63;10.30;;;;;;;21.36;88.71;101536.09;5329593;28;20459;-75
2023/07/09 03:39:39;;;;;;;18.43;10.27;;;;;;;21.25;88.35;101533.94;5327735;28;20027;-75
2023/07/09 03:42:10;;;;;;;14.70;10.53;;;;;;;21.24;89.15;101533.09;5328243;28;20067;-75
2023/07/09 03:44:41;;;;;;;11.90;10.37;;;;;;;21.21;88.64;101541.16;5327406;28;20028;-74
2023/07/09 03:47:13;;;;;;;15.03;11.43;;;;;;;21.15;88.66;101541.44;5327920;28;20027;-74
2023/07/09 03:49:44;;;;;;;17.20;10.53;;;;;;;21.21;89.61;101530.56;5328437;28;20038;-74
2023/07/09 03:52:16;;;;;;;14.57;10.23;;;;;;;21.19;90.13;101537.75;5328067;28;20043;-74
2023/07/09 03:54:47;;;;;;;12.23;10.23;;;;;;;21.18;90.16;101541.31;5327888;27;20077;-74
2023/07/09 03:57:18;;;;;;;14.03;10.80;;;;;;;21.20;89.65;101541.25;5328048;28;20076;-75
2023/07/09 03:59:50;;;;;;;20.50;12.20;;;;;;;21.14;90.24;101534.44;5328006;28;20039;-75
2023/07/09 04:02:22;;;;;;;13.23;10.40;;;;;;;21.18;89.99;101538.66;5327061;28;20032;-74
2023/07/09 04:04:53;;;;;;;13.82;10.57;;;;;;;21.22;90.50;101540.25;5327792;28;20023;-74
2023/07/09 04:07:24;;;;;;;15.63;11.70;;;;;;;21.25;91.18;101539.22;5327511;28;20023;-75
2023/07/09 04:09:56;;;;;;;16.73;12.17;;;;;;;21.18;90.27;101536.00;5327270;28;20028;-74
2023/07/09 04:12:27;;;;;;;19.70;13.63;;;;;;;21.29;90.93;101532.88;5327796;28;20043;-75
2023/07/09 04:14:59;;;;;;;16.30;13.73;;;;;;;21.33;91.26;101534.44;5327053;27;20106;-75
2023/07/09 04:17:30;;;;;;;20.33;13.87;;;;;;;21.33;91.08;101538.88;5310605;28;20436;-75
2023/07/09 04:20:05;;;;;;;15.03;13.20;;;;;;;21.41;91.56;101540.28;5327216;28;20019;-75
2023/07/09 04:22:37;;;;;;;16.60;13.30;;;;;;;21.40;91.04;101543.00;5327509;28;20114;-75
2023/07/09 04:25:10;;;;;;;14.32;12.82;;;;;;;21.47;91.38;101547.91;5327841;28;20111;-75
2023/07/09 04:27:41;;;;;;;17.67;13.68;;;;;;;21.50;91.14;101539.00;5327352;28;20355;-74
2023/07/09 04:30:14;;;;;;;15.23;13.40;;;;;;;21.56;92.30;101541.38;5327273;28;20081;-74
2023/07/09 04:32:46;;;;;;;19.58;14.05;;;;;;;21.55;91.76;101541.44;5325831;28;20042;-74
2023/07/09 04:35:18;;;;;;;15.13;12.85;;;;;;;21.62;91.32;101545.53;5327208;28;20035;-75
2023/07/09 04:37:49;;;;;;;17.13;13.90;;;;;;;21.61;90.01;101543.81;5327152;28;20209;-74
2023/07/09 04:40:21;;;;;;;17.88;13.27;;;;;;;21.65;90.56;101538.28;5326343;28;20466;-74
2023/07/09 04:42:52;;;;;;;15.90;13.77;;;;;;;21.60;91.54;101542.09;5327061;28;20032;-73
2023/07/09 04:45:23;;;;;;;14.07;12.47;;;;;;;21.68;90.82;101535.47;5326989;28;20119;-74
2023/07/09 04:47:55;;;;;;;15.50;12.87;;;;;;;21.68;90.76;101535.47;5326673;28;20070;-74
2023/07/09 04:50:26;;;;;;;16.83;13.73;;;;;;;21.73;90.73;101539.72;5326656;28;20483;-74
2023/07/09 04:52:59;;;;;;;19.65;12.18;;;;;;;21.85;91.42;101541.78;5325674;28;20036;-74
2023/07/09 04:55:31;;;;;;;13.57;12.13;;;;;;;21.81;91.27;101541.06;5325526;28;20076;-74
2023/07/09 04:58:06;;;;;;;14.50;13.00;;;;;;;21.88;90.49;101539.00;5326753;28;20073;-74
2023/07/09 05:00:37;;;;;;;18.80;12.60;;;;;;;21.94;92.20;101538.66;5326713;28;20024;-75
2023/07/09 05:03:09;;;;;;;14.10;12.60;;;;;;;21.99;92.04;101541.09;5326284;28;20039;-74
2023/07/09 05:05:44;;;;;;;15.47;12.90;;;;;;;22.09;92.11;101536.19;5326562;28;20031;-74
2023/07/09 05:08:19;;;;;;;15.38;12.35;;;;;;;22.16;92.25;101541.13;5326484;28;20112;-74
2023/07/09 05:10:52;;;;;;;13.70;11.68;;;;;;;22.20;90.80;101540.06;5325990;28;20031;-74
2023/07/09 05:13:24;;;;;;;15.38;12.07;;;;;;;22.24;90.45;101543.41;5326348;28;20031;-73
2023/07/09 05:15:56;;;;;;;16.42;12.30;;;;;;;22.41;89.82;101539.94;5326603;27;20027;-74
2023/07/09 05:18:28;;;;;;;14.50;12.35;;;;;;;22.53;89.11;101538.47;5326042;28;20027;-74
2023/07/09 05:20:59;;;;;;;15.03;11.73;;;;;;;22.56;88.18;101536.50;5325179;28;20061;-74
2023/07/09 05:23:30;;;;;;;15.30;11.97;;;;;;;22.67;85.77;101537.72;5326236;28;20031;-75
2023/07/09 05:26:03;;;;;;;14.20;11.70;;;;;;;22.77;88.70;101544.31;5326237;28;20467;-75
2023/07/09 05:28:34;;;;;;;16.60;12.38;;;;;;;22.83;85.81;101543.13;5328602;28;20074;-74
2023/07/09 05:31:06;;;;;;;21.13;12.27;;;;;;;22.91;88.15;101541.78;5330620;28;20127;-74
2023/07/09 05:33:37;;;;;;;13.83;12.40;;;;;;;22.95;86.80;101539.81;5329304;28;20054;-74
2023/07/09 05:36:15;;;;;;;15.37;12.30;;;;;;;23.07;85.59;101538.28;5329743;28;20023;-75
2023/07/09 05:38:47;;;;;;;16.60;11.73;;;;;;;23.19;88.23;101534.16;5330867;28;20035;-74
2023/07/09 05:41:18;;;;;;;17.10;12.63;;;;;;;23.38;84.59;101545.53;5328684;28;20027;-75
2023/07/09 05:43:51;;;;;;;16.37;12.30;;;;;;;23.33;87.76;101536.06;5331097;28;20043;-74
2023/07/09 05:46:23;;;;;;;16.33;12.13;;;;;;;23.51;84.15;101537.72;5330285;28;20023;-75
2023/07/09 05:48:55;;;;;;;;;;;;;;;23.73;84.10;101544.50;5329273;28;20055;-75
2023/07/09 05:51:26;;;;;;;17.80;12.93;;;;;;;23.69;84.73;101543.81;5332041;28;19908;-76
2023/07/09 05:53:58;;;;;;;13.48;11.80;;;;;;;23.80;81.79;101548.56;5332504;28;20114;-75
2023/07/09 05:56:29;;;;;;;17.08;11.20;;;;;;;23.87;82.83;101547.28;5332111;28;20038;-76
2023/07/09 05:59:01;;;;;;;11.50;10.27;;;;;;;23.90;81.02;101546.25;5330399;28;20462;-74
2023/07/09 06:01:35;;;;;;;11.93;10.65;;;;;;;23.97;82.98;101552.94;5328905;28;20072;-75
2023/07/09 06:04:07;;;;;;;12.90;10.40;;;;;;;24.09;80.90;101548.72;5328191;28;20032;-75
2023/07/09 06:06:38;;;;;;;16.50;10.50;;;;;;;24.17;82.27;101547.31;5327633;28;20172;-75
2023/07/09 06:09:10;;;;;;;13.50;9.57;;;;;;;24.32;79.49;101556.22;5326043;28;20043;-75
2023/07/09 06:11:41;;;;;;;11.88;9.05;;;;;;;24.40;78.15;101553.09;5325702;28;20161;-77
2023/07/09 06:14:12;;;;;;;10.95;8.20;;;;;;;24.48;79.10;101555.31;5325903;28;20039;-74
2023/07/09 06:16:44;;;;;;;12.97;9.33;;;;;;;24.58;77.45;101556.50;5314983;28;20406;-74
2023/07/09 06:19:15;;;;;;;15.50;9.25;;;;;;;24.66;75.95;101556.06;5239513;28;20557;-73
2023/07/09 06:21:47;;;;;;;12.77;8.88;;;;;;;24.81;74.75;101560.47;5282873;28;20089;-75
2023/07/09 06:24:18;;;;;;;12.00;8.47;;;;;;;24.75;75.43;101553.69;5265688;28;20043;-77
2023/07/09 06:26:50;;;;;;;12.82;8.85;;;;;;;24.97;74.74;101557.75;5265816;28;20041;-75
2023/07/09 06:29:21;;;;;;;13.27;7.63;;;;;;;24.97;74.32;101559.53;5267739;28;20060;-76
2023/07/09 06:31:53;;;;;;;13.18;8.25;;;;;;;25.03;73.29;101560.00;5283231;28;20036;-75
2023/07/09 06:34:24;;;;;;;13.30;8.93;;;;;;;25.17;72.14;101548.50;5286044;28;20439;-75
2023/07/09 06:36:57;;;;;;;10.43;7.10;;;;;;;25.25;70.95;101550.69;5285461;28;20552;-76
2023/07/09 06:39:29;;;;;;;10.65;7.50;;;;;;;25.38;69.48;101550.81;5286265;28;20059;-75
2023/07/09 06:42:00;;;;;;;12.30;8.40;;;;;;;25.42;68.87;101546.97;5285433;28;20036;-75
2023/07/09 06:44:32;;;;;;;14.13;8.33;;;;;;;25.50;69.02;101555.34;5286183;28;20029;-75
2023/07/09 06:47:03;;;;;;;11.05;7.50;;;;;;;25.63;66.87;101560.75;5285692;28;20028;-75
2023/07/09 06:49:34;;;;;;;11.13;7.50;;;;;;;25.67;69.76;101560.47;5285949;28;20033;-75
2023/07/09 06:52:06;;;;;;;13.73;7.30;;;;;;;25.83;69.50;101556.81;5285780;28;20060;-75
2023/07/09 06:54:37;;;;;;;12.15;7.95;;;;;;;25.79;68.95;101556.16;5286279;28;20098;-75
2023/07/09 06:57:09;;;;;;;11.07;6.93;;;;;;;25.98;65.45;101558.50;5285883;28;20450;-76
2023/07/09 06:59:40;;;;;;;12.07;7.20;;;;;;;26.06;64.18;101562.50;5287952;28;20274;-76
2023/07/09 07:02:12;;;;;;;11.27;7.20;;;;;;;26.11;64.62;101563.03;5285497;28;20032;-75
2023/07/09 07:04:43;;;;;;;17.10;8.43;;;;;;;26.17;63.80;101566.16;5287261;28;20074;-75
2023/07/09 07:07:14;;;;;;;10.30;7.05;;;;;;;26.32;63.13;101566.97;5285967;28;20036;-74
2023/07/09 07:09:46;;;;;;;12.73;7.43;;;;;;;26.43;62.84;101565.38;5285957;28;20036;-74
2023/07/09 07:12:26;;;;;;;10.77;7.53;;;;;;;26.59;62.62;101571.38;5285960;28;20324;-74
2023/07/09 07:14:57;;;;;;;13.10;6.65;;;;;;;26.63;61.16;101569.34;5285732;28;20282;-75
2023/07/09 07:17:29;;;;;;;12.13;7.47;;;;;;;26.70;60.68;101568.03;5285980;28;20427;-75
2023/07/09 07:20:00;;;;;;;10.45;7.13;;;;;;;26.73;62.35;101575.84;5285830;28;20368;-74
2023/07/09 07:22:32;;;;;;;9.50;6.63;;;;;;;26.91;61.94;101569.19;5286190;28;20384;-75
2023/07/09 07:25:04;;;;;;;11.02;7.28;;;;;;;26.95;62.66;101577.84;5285490;28;20059;-75
2023/07/09 07:27:37;;;;;;;12.68;7.38;;;;;;;27.16;61.67;101575.53;5285914;28;20055;-75
2023/07/09 07:30:08;;;;;;;16.00;7.93;;;;;;;27.09;60.05;101572.41;5285618;28;20036;-75
2023/07/09 07:32:47;;;;;;;;;;;;;;;27.34;58.60;101573.38;5286916;28;20041;-75
2023/07/09 07:35:19;;;;;;;12.98;8.32;;;;;;;27.20;58.10;101573.47;5285065;28;19920;-75
2023/07/09 07:37:50;;;;;;;;;;;;;;;27.46;55.69;101580.50;5287465;28;20090;-75
2023/07/09 07:40:21;;;;;;;14.27;6.93;;;;;;;27.42;53.04;101578.19;5285399;28;19920;-74
2023/07/09 07:42:53;;;;;;;;;;;;;;;27.61;54.58;101577.69;5286370;28;20391;-76
2023/07/09 07:45:24;;;;;;;14.77;7.07;;;;;;;27.60;53.72;101576.00;5284863;28;19912;-75
2023/07/09 07:47:56;;;;;;;9.82;5.72;;;;;;;27.56;54.37;101571.81;5286253;28;20599;-76
2023/07/09 07:50:27;;;;;;;9.30;6.40;;;;;;;27.63;53.40;101573.97;5285826;28;20112;-76
2023/07/09 07:52:58;;;;;;;13.30;7.35;;;;;;;27.64;54.96;101573.00;5285614;28;20305;-75
2023/07/09 07:55:30;;;;;;;8.90;6.25;;;;;;;27.80;51.72;101574.53;5285163;28;20028;-75
2023/07/09 07:58:03;;;;;;;10.18;6.53;;;;;;;27.81;54.51;101577.09;5285805;28;20074;-76
2023/07/09 08:00:35;;;;;;;7.97;6.20;;;;;;;27.86;52.63;101574.09;5284847;28;20032;-76
2023/07/09 08:03:06;;;;;;;;;;;;;;;28.14;54.27;101569.38;5286157;28;20357;-77
2023/07/09 08:05:38;;;;;;;10.27;6.13;;;;;;;28.10;51.15;101567.91;5285224;28;19916;-76
2023/07/09 08:08:10;;;;;;;;;;;;;;;28.30;54.00;101577.97;5286039;28;20115;-77
2023/07/09 08:10:42;;;;;;;11.65;5.65;;;;;;;28.16;52.13;101567.47;5284440;28;20006;-76
2023/07/09 08:13:13;;;;;;;;;;;;;;;28.40;52.78;101562.06;5286250;28;20115;-77
2023/07/09 08:15:45;;;;;;;11.48;6.18;;;;;;;28.18;52.25;101558.31;5285212;28;19916;-77
2023/07/09 08:18:17;;;;;;;12.20;6.15;;;;;;;28.33;50.57;101566.19;5287451;28;20036;-75
2023/07/09 08:20:48;;;;;;;;;;;;;;;28.55;51.78;101568.09;5284462;28;20033;-75
2023/07/09 08:23:19;;;;;;;11.00;6.43;;;;;;;28.36;52.26;101560.59;5285075;28;19920;-75
2023/07/09 08:25:55;;;;;;;8.68;6.35;;;;;;;28.41;50.79;101569.13;5284551;28;20310;-74
2023/07/09 08:28:26;;;;;;;10.10;5.97;;;;;;;28.33;51.83;101564.34;5285096;28;20028;-75
2023/07/09 08:30:58;;;;;;;;;;;;;;;28.69;51.24;101558.97;5284763;28;20035;-78
2023/07/09 08:33:30;;;;;;;11.32;6.00;;;;;;;28.43;55.47;101560.97;5284575;28;19920;-74
2023/07/09 08:36:02;;;;;;;7.97;6.13;;;;;;;28.47;50.56;101563.31;5284641;28;20353;-75
2023/07/09 08:38:33;;;;;;;;;;;;;;;28.77;50.69;101558.41;5285441;28;20078;-76
2023/07/09 08:41:24;;;;;;;8.30;6.13;;;;;;;28.61;50.11;101564.09;5283667;28;19912;-75
2023/07/09 08:44:25;;;;;;;8.10;6.40;;;;;;;28.67;50.78;101552.88;5284331;28;20036;-76
2023/07/09 08:47:34;;;;;;;10.88;6.55;;;;;;;28.77;50.76;101558.41;5283490;28;20033;-75
2023/07/09 08:50:15;;;;;;;12.18;6.13;;;;;;;28.79;52.63;101554.63;5283894;28;20044;-75
2023/07/09 08:52:49;;;;;;;11.15;6.63;;;;;;;28.97;52.05;101563.06;5283504;28;20043;-74
2023/07/09 08:55:27;;;;;;;7.72;6.15;;;;;;;29.08;51.25;101568.44;5283489;28;20032;-76
2023/07/09 08:58:03;;;;;;;9.85;5.97;;;;;;;29.22;50.22;101566.50;5287045;28;20029;-75
2023/07/09 09:00:50;;;;;;;11.32;6.40;;;;;;;29.33;50.13;101566.50;5282249;28;20059;-75
2023/07/09 09:03:40;;;;;;;12.68;6.22;;;;;;;29.38;48.06;101558.06;5283764;28;20065;-75
2023/07/09 09:06:25;;;;;;;8.73;5.85;;;;;;;29.32;50.56;101554.06;5283504;28;20051;-75
2023/07/09 09:09:22;;;;;;;8.65;5.88;;;;;;;29.51;46.35;101553.41;5284324;28;20541;-75
2023/07/09 09:12:29;;;;;;;8.15;6.05;;;;;;;29.43;50.03;101548.69;5282198;28;20035;-76
2023/07/09 09:15:09;;;;;;;7.38;5.90;;;;;;;29.62;47.79;101548.03;5282468;28;20040;-75
2023/07/09 09:17:41;;;;;;;8.73;5.70;;;;;;;29.76;46.68;101544.22;5274045;28;20038;-76
2023/07/09 09:20:22;;;;;;;;;;;;;;;29.98;46.67;101551.38;5279852;28;20531;-75
2023/07/09 09:22:56;;;;;;;12.57;8.25;;;;;;;29.80;46.50;101543.03;5282856;28;20305;-75
2023/07/09 09:25:30;;;;;;;9.40;6.10;;;;;;;29.81;49.52;101546.56;5261853;28;20112;-75
2023/07/09 09:28:02;;;;;;;18.70;6.60;;;;;;;29.82;50.34;101540.22;5262775;28;20029;-76
2023/07/09 09:30:33;;;;;;;12.40;7.30;;;;;;;29.92;47.73;101542.97;5262371;28;20423;-76
2023/07/09 09:33:07;;;;;;;;;;;;;;;30.24;46.60;101540.28;5262823;28;20512;-75
2023/07/09 09:35:41;;;;;;;8.82;6.15;;;;;;;30.07;47.80;101530.09;5262621;28;20011;-76
2023/07/09 09:38:17;;;;;;;12.20;5.75;;;;;;;30.11;45.18;101518.94;5266796;28;20037;-75
2023/07/09 09:40:48;;;;;;;9.55;6.47;;;;;;;30.33;47.25;101527.88;5261686;28;20036;-75
2023/07/09 09:43:23;;;;;;;8.85;5.80;;;;;;;30.69;47.56;101523.88;5262806;28;20476;-76
2023/07/09 09:45:55;;;;;;;8.73;6.05;;;;;;;30.71;44.80;101510.31;5261938;28;20094;-76
2023/07/09 09:48:31;;;;;;;8.45;6.13;;;;;;;30.98;48.60;101517.81;5262859;28;20021;-75
2023/07/09 09:51:06;;;;;;;9.77;6.40;;;;;;;31.10;46.63;101513.19;5261734;28;20031;-75
2023/07/09 09:53:39;;;;;;;9.30;6.28;;;;;;;31.13;43.63;101512.06;5262876;28;20108;-76
2023/07/09 09:56:33;;;;;;;7.95;6.18;;;;;;;31.47;47.33;101504.50;5262063;28;20056;-77
2023/07/09 09:59:05;;;;;;;8.40;6.20;;;;;;;31.52;46.56;101504.94;5261606;28;20484;-75
2023/07/09 10:01:37;;;;;;;9.60;5.72;;;;;;;31.55;45.33;101499.28;5261868;28;20033;-76
2023/07/09 10:04:16;;;;;;;9.98;6.55;;;;;;;31.87;45.57;101500.88;5262685;28;20394;-77
2023/07/09 10:06:51;;;;;;;9.93;6.38;;;;;;;31.85;43.13;101510.09;5261348;28;20100;-77
2023/07/09 10:09:46;;;;;;;8.80;7.03;;;;;;;32.23;45.96;101511.09;5262422;28;20112;-77
2023/07/09 10:12:53;;;;;;;8.93;6.20;;;;;;;32.51;43.15;101512.06;5261300;28;20082;-75
2023/07/09 10:15:44;;;;;;;9.18;6.38;;;;;;;32.90;43.04;101506.56;5264907;28;20044;-75
2023/07/09 10:18:43;;;;;;;11.13;6.00;;;;;;;33.31;43.85;101507.06;5261807;28;20134;-75
2023/07/09 10:21:31;;;;;;;8.63;5.82;;;;;;;33.39;39.14;101522.53;5262375;28;20024;-75
2023/07/09 10:24:12;;;;;;;9.23;5.80;;;;;;;33.60;39.60;101524.94;5268531;28;20415;-76
2023/07/09 10:26:52;;;;;;;10.05;6.13;;;;;;;33.39;39.26;101527.94;5260847;28;20503;-76
2023/07/09 10:29:57;;;;;;;7.90;6.03;;;;;;;33.63;37.96;101535.47;5270180;28;20456;-75
2023/07/09 10:32:28;;;;;;;7.78;5.90;;;;;;;34.08;38.53;101531.84;5252472;28;20044;-76
2023/07/09 10:35:09;;;;;;;8.18;5.93;;;;;;;34.41;40.47;101529.44;5261099;28;20053;-76
2023/07/09 10:38:14;;;;;;;10.65;6.70;;;;;;;34.99;37.95;101524.41;5262882;28;20040;-76
2023/07/09 10:40:53;;;;;;;11.95;6.72;;;;;;;34.81;35.89;101530.75;5259512;28;20549;-75
2023/07/09 10:43:35;;;;;;;12.15;5.57;;;;;;;35.02;34.00;101537.59;5268328;28;20021;-74
2023/07/09 10:46:21;;;;;;;8.20;5.90;;;;;;;35.20;35.84;101534.81;5260507;28;20535;-75
2023/07/09 10:48:56;;;;;;;8.27;5.90;;;;;;;35.38;37.46;101532.84;5260812;28;20352;-75
2023/07/09 10:51:48;;;;;;;7.85;5.78;;;;;;;35.89;36.38;101531.94;5260846;28;20029;-76
2023/07/09 10:54:31;;;;;;;11.35;5.80;;;;;;;35.48;35.66;101516.44;5259898;28;20032;-75
2023/07/09 10:57:24;;;;;;;10.88;6.10;;;;;;;36.31;38.51;101520.94;5260212;28;20456;-76
2023/07/09 10:59:57;;;;;;;9.80;7.28;;;;;;;36.11;32.76;101520.44;5272894;28;20190;-76
2023/07/09 11:02:35;;;;;;;8.70;5.45;;;;;;;35.78;32.53;101506.84;5281700;28;20067;-76
2023/07/09 11:05:10;;;;;;;9.93;6.60;;;;;;;36.54;36.04;101511.25;5281205;28;20387;-75
2023/07/09 11:07:50;;;;;;;7.15;5.65;;;;;;;36.61;38.12;101512.22;5270827;28;20036;-75
2023/07/09 11:10:28;;;;;;;7.55;5.60;;;;;;;36.44;34.44;101515.00;5262887;28;20044;-75
2023/07/09 11:13:10;;;;;;;8.55;5.47;;;;;;;36.44;33.95;101511.44;5265384;28;20490;-75
2023/07/09 11:15:46;;;;;;;10.43;5.53;;;;;;;36.51;31.88;101526.00;5263312;28;20036;-74
2023/07/09 11:18:25;;;;;;;12.15;6.40;;;;;;;36.30;33.22;101526.56;5266203;28;20460;-75
2023/07/09 11:21:16;;;;;;;13.10;5.65;;;;;;;36.14;35.09;101533.66;5265050;28;20040;-75
2023/07/09 11:23:57;;;;;;;9.82;6.00;;;;;;;36.21;33.36;101532.97;5265789;28;20065;-73
2023/07/09 11:26:31;;;;;;;8.30;4.90;;;;;;;35.96;35.28;101538.41;5263663;28;20441;-74
2023/07/09 11:29:02;;;;;;;9.10;5.65;;;;;;;35.99;32.69;101534.53;5281090;28;20029;-73
2023/07/09 11:31:44;;;;;;;9.35;5.15;;;;;;;35.94;31.78;101543.16;5275606;28;20032;-75
2023/07/09 11:34:19;;;;;;;9.90;5.63;;;;;;;35.73;32.71;101528.19;5274271;28;20384;-74
2023/07/09 11:36:56;;;;;;;7.65;5.60;;;;;;;35.70;32.69;101530.38;5263915;28;20037;-74
2023/07/09 11:39:38;;;;;;;11.65;5.55;;;;;;;35.47;38.79;101524.72;5273658;28;20028;-74
2023/07/09 11:42:26;;;;;;;8.00;4.72;;;;;;;35.84;33.37;101546.03;5272310;28;20025;-75
2023/07/09 11:45:10;;;;;;;12.80;6.03;;;;;;;35.14;34.78;101532.75;5271743;28;20025;-74
2023/07/09 11:47:51;;;;;;;7.38;5.63;;;;;;;35.28;36.92;101537.56;5264247;28;20033;-74
2023/07/09 11:50:35;;;;;;;9.23;5.95;;;;;;;35.00;36.29;101542.31;5263741;28;20033;-74
2023/07/09 11:53:12;;;;;;;10.10;6.10;;;;;;;34.84;36.76;101551.22;5264019;28;20044;-73
2023/07/09 11:55:46;;;;;;;10.10;5.65;;;;;;;34.43;38.00;101548.22;5263379;28;20456;-74
2023/07/09 11:58:18;;;;;;;9.35;5.28;;;;;;;34.18;36.94;101561.53;5264188;28;20040;-74